Terminal Aerodrome Forecast
Issued by NWS Charleston, WV

Current Version | Previous Version | Graphics & Text | Print | Product List | Glossary On
Versions: 1 2 3 4 5 6 7 8 9 10 11 12 13 14 15 16 17 18 19 20 21 22 23 24 25 26 27
000
FTUS41 KRLX 220924 AAC
TAFEKN
TAF AMD
KEKN 220924Z 2209/2306 00000KT 4SM BR BKN060
      TEMPO 2209/2212 1 1/2SM BR SCT002 SCT060
     FM221400 13005KT P6SM BKN060
     FM221900 13008KT P6SM -SHRA OVC045
     FM230400 15005KT 5SM -SHRA OVC035=

USA.gov is the U.S. government's official web portal to all federal, state and local government web resources and services.